createdAt,value
2023-02-04T00:00:43.869Z,3.20
2023-02-04T00:04:46.612Z,3.33
2023-02-04T00:08:49.419Z,3.13
2023-02-04T00:12:52.072Z,3.28
2023-02-04T00:16:55.298Z,3.60
2023-02-04T00:20:58.241Z,3.33
2023-02-04T00:25:01.037Z,3.20
2023-02-04T00:29:03.780Z,3.05
2023-02-04T00:33:07.690Z,3.22
2023-02-04T00:37:10.480Z,2.97
2023-02-04T00:41:14.122Z,2.85
2023-02-04T00:45:16.792Z,2.85
2023-02-04T00:49:20.360Z,3.00
2023-02-04T00:53:23.401Z,3.40
2023-02-04T00:57:26.719Z,3.22
2023-02-04T01:01:30.461Z,2.67
2023-02-04T01:05:33.192Z,2.92
2023-02-04T01:09:35.942Z,2.85
2023-02-04T01:13:40.799Z,3.67
2023-02-04T01:17:43.970Z,3.22
2023-02-04T01:21:46.829Z,3.33
2023-02-04T01:25:49.790Z,3.58
2023-02-04T01:29:52.685Z,2.90
2023-02-04T01:33:55.733Z,2.78
2023-02-04T01:37:58.719Z,2.53
2023-02-04T01:42:01.648Z,3.05
2023-02-04T01:46:04.718Z,2.95
2023-02-04T01:50:10.456Z,3.28
2023-02-04T01:54:15.148Z,2.60
2023-02-04T01:58:18.278Z,2.40
2023-02-04T02:02:43.203Z,2.80
2023-02-04T02:06:54.080Z,2.40
2023-02-04T02:10:56.897Z,2.35
2023-02-04T02:15:00.913Z,2.50
2023-02-04T02:19:05.766Z,2.38
2023-02-04T02:23:43.489Z,2.10
2023-02-04T02:27:46.659Z,2.30
2023-02-04T02:31:50.668Z,2.15
2023-02-04T02:35:53.644Z,2.10
2023-02-04T02:39:56.737Z,2.05
2023-02-04T02:43:59.552Z,2.13
2023-02-04T02:48:05.559Z,2.38
2023-02-04T02:52:12.290Z,2.93
2023-02-04T02:56:16.223Z,2.45
2023-02-04T03:00:25.166Z,2.42
2023-02-04T03:04:34.604Z,1.98
2023-02-04T03:08:40.367Z,2.95
2023-02-04T03:12:43.806Z,2.65
2023-02-04T03:16:48.318Z,3.20
2023-02-04T03:20:52.143Z,2.90
2023-02-04T03:24:54.904Z,2.70
2023-02-04T03:28:58.985Z,2.70
2023-02-04T03:33:01.738Z,2.60
2023-02-04T03:37:04.478Z,2.60
2023-02-04T03:41:08.131Z,2.35
2023-02-04T03:45:11.204Z,2.28
2023-02-04T03:49:14.455Z,3.00
2023-02-04T03:53:17.662Z,2.28
2023-02-04T03:57:20.924Z,2.50
2023-02-04T04:01:23.805Z,5.45
2023-02-04T04:05:28.028Z,6.10
2023-02-04T04:09:30.839Z,5.88
2023-02-04T04:13:33.916Z,6.03
2023-02-04T04:17:36.829Z,5.65
2023-02-04T04:21:39.848Z,5.78
2023-02-04T04:25:42.744Z,6.38
2023-02-04T04:29:45.617Z,6.25
2023-02-04T04:33:48.540Z,5.50
2023-02-04T04:37:51.468Z,5.75
2023-02-04T04:41:54.278Z,5.88
2023-02-04T04:45:57.071Z,6.60
2023-02-04T04:49:59.866Z,6.18
2023-02-04T04:54:03.083Z,6.75
2023-02-04T04:58:07.400Z,7.57
2023-02-04T05:02:10.216Z,6.30
2023-02-04T05:06:13.239Z,8.13
2023-02-04T05:10:16.434Z,6.85
2023-02-04T05:14:20.081Z,5.95
2023-02-04T05:18:22.777Z,6.57
2023-02-04T05:22:25.706Z,5.03
2023-02-04T05:26:31.170Z,5.78
2023-02-04T05:30:34.480Z,5.07
2023-02-04T05:34:38.643Z,5.88
2023-02-04T05:38:42.475Z,5.88
2023-02-04T05:42:45.211Z,5.93
2023-02-04T05:46:47.886Z,7.40
2023-02-04T05:50:50.754Z,6.90
2023-02-04T05:54:53.683Z,7.72
2023-02-04T05:58:56.581Z,7.07
2023-02-04T06:02:59.396Z,8.52
2023-02-04T06:07:03.311Z,9.18
2023-02-04T06:11:06.551Z,9.70
2023-02-04T06:15:10.132Z,9.25
2023-02-04T06:19:13.846Z,9.98
2023-02-04T06:23:16.577Z,11.30
2023-02-04T06:27:23.391Z,10.77
2023-02-04T06:35:28.884Z,8.30
2023-02-04T06:39:31.552Z,10.45
2023-02-04T06:43:34.253Z,11.07
2023-02-04T06:47:36.942Z,10.60
2023-02-04T06:51:39.667Z,10.02
2023-02-04T06:55:42.569Z,9.07
2023-02-04T06:59:47.054Z,11.00
2023-02-04T07:03:50.127Z,10.30
2023-02-04T07:07:53.110Z,9.40
2023-02-04T07:11:55.852Z,10.40
2023-02-04T07:15:58.774Z,10.80
2023-02-04T07:20:01.709Z,10.77
2023-02-04T07:24:04.718Z,11.48
2023-02-04T07:28:07.553Z,14.45
2023-02-04T07:32:10.389Z,10.50
2023-02-04T07:36:15.085Z,10.25
2023-02-04T07:40:18.264Z,9.63
2023-02-04T07:44:21.312Z,9.93
2023-02-04T07:48:24.443Z,13.68
2023-02-04T07:52:27.305Z,11.25
2023-02-04T07:56:30.481Z,10.48
2023-02-04T08:00:33.576Z,13.05
2023-02-04T08:04:38.247Z,11.27
2023-02-04T08:08:41.000Z,12.75
2023-02-04T08:12:44.083Z,13.50
2023-02-04T08:16:47.042Z,13.80
2023-02-04T08:20:49.841Z,12.25
2023-02-04T08:24:52.551Z,13.23
2023-02-04T08:28:55.470Z,14.05
2023-02-04T08:32:58.228Z,11.63
2023-02-04T08:37:01.047Z,10.75
2023-02-04T08:41:06.708Z,12.40
2023-02-04T08:45:12.475Z,10.70
2023-02-04T08:49:16.642Z,10.20
2023-02-04T08:53:21.856Z,10.40
2023-02-04T08:57:24.645Z,10.82
2023-02-04T09:01:27.972Z,11.05
2023-02-04T09:05:30.820Z,11.65
2023-02-04T09:09:33.566Z,11.48
2023-02-04T09:13:36.768Z,13.55
2023-02-04T09:17:40.118Z,11.50
2023-02-04T09:21:42.958Z,11.15
2023-02-04T09:25:46.554Z,10.90
2023-02-04T09:29:49.253Z,11.20
2023-02-04T09:33:52.184Z,10.88
2023-02-04T09:37:55.090Z,12.27
2023-02-04T09:41:59.029Z,11.02
2023-02-04T09:46:03.088Z,12.02
2023-02-04T09:50:06.230Z,11.32
2023-02-04T09:54:17.850Z,9.00
2023-02-04T09:58:22.878Z,9.82
2023-02-04T10:02:26.876Z,9.93
2023-02-04T10:06:29.835Z,7.88
2023-02-04T10:10:33.498Z,5.00
2023-02-04T10:14:36.553Z,6.80
2023-02-04T10:18:39.944Z,4.80
2023-02-04T10:22:43.095Z,5.38
2023-02-04T10:26:46.220Z,3.90
2023-02-04T10:30:49.728Z,5.07
2023-02-04T10:34:58.237Z,5.05
2023-02-04T10:39:03.820Z,5.93
2023-02-04T10:43:18.270Z,5.32
2023-02-04T10:47:27.505Z,4.85
2023-02-04T10:51:30.718Z,5.25
2023-02-04T10:55:33.624Z,4.50
2023-02-04T10:59:37.477Z,4.60
2023-02-04T11:03:45.395Z,4.63
2023-02-04T11:07:51.564Z,3.85
2023-02-04T11:11:57.844Z,4.45
2023-02-04T11:16:18.798Z,3.47
2023-02-04T11:20:33.286Z,4.07
2023-02-04T11:24:38.018Z,3.85
2023-02-04T11:28:40.804Z,3.20
2023-02-04T11:32:43.761Z,3.20
2023-02-04T11:37:01.926Z,3.30
2023-02-04T11:41:05.562Z,3.65
2023-02-04T11:45:18.364Z,3.10
2023-02-04T11:49:22.969Z,4.78
2023-02-04T11:53:31.115Z,4.20
2023-02-04T11:57:42.727Z,4.72
2023-02-04T12:01:46.224Z,3.97
2023-02-04T12:05:50.002Z,4.03
2023-02-04T12:09:53.592Z,3.45
2023-02-04T12:13:58.659Z,3.53
2023-02-04T12:18:02.899Z,3.40
2023-02-04T12:22:05.894Z,3.55
2023-02-04T12:26:09.510Z,3.70
2023-02-04T12:30:13.320Z,3.55
2023-02-04T12:34:17.393Z,3.83
2023-02-04T12:38:20.778Z,9.88
2023-02-04T12:42:23.875Z,5.25
2023-02-04T12:46:28.187Z,9.23
2023-02-04T12:50:34.201Z,4.22
2023-02-04T12:54:37.219Z,5.43
2023-02-04T12:58:40.449Z,4.97
2023-02-04T13:02:43.886Z,5.13
2023-02-04T13:06:48.708Z,6.90
2023-02-04T13:10:52.494Z,3.50
2023-02-04T13:14:55.382Z,3.97
2023-02-04T13:18:58.465Z,2.88
2023-02-04T13:23:01.534Z,3.60
2023-02-04T13:27:04.448Z,3.03
2023-02-04T13:31:07.635Z,3.40
2023-02-04T13:35:10.993Z,2.83
2023-02-04T13:39:14.177Z,2.70
2023-02-04T13:43:17.178Z,3.05
2023-02-04T13:47:20.046Z,2.70
2023-02-04T13:51:23.135Z,2.50
2023-02-04T13:55:26.120Z,2.33
2023-02-04T13:59:28.890Z,3.22
2023-02-04T14:03:31.874Z,2.50
2023-02-04T14:07:34.726Z,2.72
2023-02-04T14:11:38.110Z,3.22
2023-02-04T14:15:42.082Z,3.58
2023-02-04T14:19:44.925Z,3.13
2023-02-04T14:23:47.624Z,2.90
2023-02-04T14:27:51.631Z,3.03
2023-02-04T14:31:54.441Z,2.53
2023-02-04T14:35:57.346Z,2.90
2023-02-04T14:40:00.188Z,3.63
2023-02-04T14:44:03.211Z,3.50
2023-02-04T14:48:06.743Z,3.10
2023-02-04T14:52:11.497Z,4.63
2023-02-04T14:56:14.378Z,4.93
2023-02-04T15:00:17.888Z,4.45
2023-02-04T15:04:21.173Z,4.32
2023-02-04T15:08:24.068Z,5.40
2023-02-04T15:12:27.069Z,4.05
2023-02-04T15:16:30.122Z,4.97
2023-02-04T15:20:39.384Z,3.72
2023-02-04T15:24:42.284Z,4.15
2023-02-04T15:28:45.384Z,4.30
2023-02-04T15:32:48.140Z,9.55
2023-02-04T15:36:51.049Z,4.93
2023-02-04T15:40:53.850Z,4.97
2023-02-04T15:44:56.634Z,3.92
2023-02-04T15:48:59.499Z,4.30
2023-02-04T15:53:02.497Z,4.20
2023-02-04T15:57:05.390Z,4.07
2023-02-04T16:01:08.297Z,4.03
2023-02-04T16:05:11.206Z,3.65
2023-02-04T16:09:14.033Z,5.05
2023-02-04T16:13:17.223Z,4.97
2023-02-04T16:17:19.899Z,4.72
2023-02-04T16:21:22.746Z,4.68
2023-02-04T16:25:25.610Z,5.20
2023-02-04T16:29:28.377Z,5.30
2023-02-04T16:33:31.370Z,4.47
2023-02-04T16:37:38.080Z,4.72
2023-02-04T16:41:41.051Z,4.60
2023-02-04T16:45:43.925Z,4.63
2023-02-04T16:49:48.254Z,5.07
2023-02-04T16:53:51.258Z,6.10
2023-02-04T16:57:54.034Z,4.90
2023-02-04T17:02:20.097Z,5.15
2023-02-04T17:06:32.388Z,4.65
2023-02-04T17:10:56.681Z,4.82
2023-02-04T17:19:37.236Z,19.42
2023-02-04T17:23:45.780Z,9.38
2023-02-04T17:32:26.266Z,3.47
2023-02-04T17:36:34.554Z,3.22
2023-02-04T17:40:41.142Z,3.35
2023-02-04T17:44:47.523Z,2.65
2023-02-04T17:48:53.852Z,3.35
2023-02-04T17:52:56.956Z,3.35
2023-02-04T17:57:15.088Z,4.63
2023-02-04T18:01:23.772Z,4.40
2023-02-04T18:05:31.110Z,4.15
2023-02-04T18:09:44.615Z,4.38
2023-02-04T18:13:52.275Z,4.25
2023-02-04T18:18:40.071Z,4.40
2023-02-04T18:22:57.829Z,4.47
2023-02-04T18:31:52.861Z,4.88
2023-02-04T18:36:05.511Z,5.70
2023-02-04T18:40:33.715Z,4.90
2023-02-04T18:44:58.707Z,5.50
2023-02-04T18:49:17.467Z,5.55
2023-02-04T18:53:30.481Z,7.03
2023-02-04T18:57:47.828Z,7.50
2023-02-04T19:01:51.657Z,7.60
2023-02-04T19:05:56.678Z,6.68
2023-02-04T19:09:59.899Z,7.72
2023-02-04T19:14:25.105Z,7.68
2023-02-04T19:18:42.460Z,8.38
2023-02-04T19:22:50.577Z,7.65
2023-02-04T19:26:58.632Z,8.98
2023-02-04T19:31:08.157Z,8.80
2023-02-04T19:35:19.505Z,8.88
2023-02-04T19:39:25.395Z,9.57
2023-02-04T19:43:37.698Z,9.87
2023-02-04T19:47:44.601Z,9.77
2023-02-04T19:55:53.765Z,9.73
2023-02-04T19:59:58.457Z,9.57
2023-02-04T20:04:03.242Z,8.45
2023-02-04T20:08:41.868Z,8.50
2023-02-04T20:12:45.886Z,8.00
2023-02-04T20:16:57.647Z,6.82
2023-02-04T20:21:17.080Z,5.65
2023-02-04T20:25:35.337Z,5.63
2023-02-04T20:29:42.326Z,4.90
2023-02-04T20:34:01.951Z,4.80
2023-02-04T20:38:19.918Z,3.55
2023-02-04T20:42:39.673Z,3.17
2023-02-04T20:46:43.181Z,3.20
2023-02-04T20:50:47.595Z,2.50
2023-02-04T20:54:50.631Z,2.72
2023-02-04T20:59:22.513Z,2.55
2023-02-04T21:03:37.840Z,1.98
2023-02-04T21:07:51.448Z,1.70
2023-02-04T21:11:58.669Z,1.83
2023-02-04T21:16:02.625Z,1.73
2023-02-04T21:20:08.306Z,1.83
2023-02-04T21:24:13.714Z,1.67
2023-02-04T21:28:16.831Z,1.15
2023-02-04T21:32:19.544Z,1.58
2023-02-04T21:36:42.699Z,1.58
2023-02-04T21:40:52.624Z,1.45
2023-02-04T21:45:01.861Z,1.35
2023-02-04T21:49:09.761Z,1.60
2023-02-04T21:53:13.537Z,1.20
2023-02-04T21:57:16.824Z,1.40
2023-02-04T22:01:20.790Z,1.60
2023-02-04T22:05:24.558Z,1.25
2023-02-04T22:09:29.010Z,1.40
2023-02-04T22:13:32.969Z,1.15
2023-02-04T22:22:09.774Z,1.50
2023-02-04T22:26:20.938Z,1.60
2023-02-04T22:30:23.893Z,1.52
2023-02-04T22:34:27.290Z,1.40
2023-02-04T22:38:30.022Z,1.55
2023-02-04T22:42:32.819Z,1.50
2023-02-04T22:46:36.293Z,2.67
2023-02-04T22:50:40.560Z,3.08
2023-02-04T22:54:46.185Z,2.00
2023-02-04T22:58:53.924Z,3.03
2023-02-04T23:02:57.088Z,1.67
2023-02-04T23:07:04.701Z,1.92
2023-02-04T23:11:09.449Z,1.60
2023-02-04T23:15:16.604Z,1.40
2023-02-04T23:19:19.408Z,1.65
2023-02-04T23:23:22.572Z,1.48
2023-02-04T23:27:25.396Z,1.52
2023-02-04T23:31:30.869Z,1.25
2023-02-04T23:35:55.022Z,1.17
2023-02-04T23:40:24.323Z,1.27
2023-02-04T23:44:34.287Z,1.00
2023-02-04T23:48:39.170Z,1.67
2023-02-04T23:52:43.288Z,1.33
2023-02-04T23:56:48.460Z,1.40
